Terminal Aerodrome Forecast
Issued by NWS Wilmington, NC

Current Version | Previous Version | Graphics & Text | Print | Product List | Glossary Off
Versions: 1 2 3 4 5 6 7 8 9 10 11 12 13 14 15

000
FTUS42 KILM 191100 CCA
TAFFLO
TAF COR
KFLO 191146Z 1912/2012 05012G20KT 5SM -RA BR OVC007
      TEMPO 1912/1915 2SM -RA BR
     FM191500 04014G20KT 6SM -RA BKN008 OVC015
     FM200800 03015G25KT P6SM BKN010 OVC025=

USA.gov is the U.S. government's official web portal to all federal, state and local government web resources and services.